Columbus Metropolitan Airport Columbus US
ICAO: KCSG
IATA: CSG
Category: Medium
Scheduled Services: Yes

Elevation: 397 ft
TransAlt. 18000 ft.

Airport Communications:
ATLANTA APP/DEP:125.5
ATIS:127.75
CTAF:120.1
GND:121.9
MACON RDO:122.65
TWR:120.1
UNICOM:122.95

KCSG Zoom In..

Runways:

(A) RW 06 length 6997 ft width 150 ft
ILS 110.30 / hdg 56

(B) RW 13 length 3997 ft width 150 ft
---- / hdg 129

(C) RW 24 length 6997 ft width 150 ft
---- / hdg 236

(D) RW 31 length 3997 ft width 150 ft
---- / hdg 309

Location; KCSG
Day. 25 / Time. 09.51 Zulu
* Altimeter: 29.91
* Temperature: 13° c. 55.4°f.
* Wind from: 300° Speed 04 kn.
Dewpoint: 12° c.
Visibility: 10 Statute Miles.
Clouds: Clear (automated report).

KCSG 250951Z AUTO 30004KT 10SM CLR 13/12 A2991 RMK AO2 SLP125 T01330117 $


Wind From 300°
Speed 04 kn.

  YouTube Music Video
 
jpsmedia.com for Web Design  worldairports.se 2018   terms of use